createdAt,value
2023-04-03T00:01:46.264Z,0.76
2023-04-03T00:06:50.100Z,0.71
2023-04-03T00:11:54.094Z,0.66
2023-04-03T00:16:57.765Z,0.62
2023-04-03T00:22:01.473Z,0.57
2023-04-03T00:27:06.381Z,0.55
2023-04-03T00:32:10.094Z,0.52
2023-04-03T00:37:13.888Z,0.50
2023-04-03T00:42:18.510Z,0.47
2023-04-03T00:47:22.403Z,0.42
2023-04-03T00:52:30.342Z,0.39
2023-04-03T00:57:34.609Z,0.33
2023-04-03T01:02:39.345Z,0.29
2023-04-03T01:07:43.692Z,0.26
2023-04-03T01:12:48.953Z,0.24
2023-04-03T01:18:01.492Z,0.22
2023-04-03T01:23:12.225Z,0.23
2023-04-03T01:28:22.963Z,0.24
2023-04-03T01:33:26.677Z,0.23
2023-04-03T01:38:31.205Z,0.19
2023-04-03T01:43:35.043Z,0.16
2023-04-03T01:48:39.085Z,0.12
2023-04-03T01:53:42.805Z,0.08
2023-04-03T01:58:46.654Z,0.06
2023-04-03T02:03:51.522Z,0.04
2023-04-03T02:08:55.314Z,0.02
2023-04-03T02:13:59.002Z,-0.05
2023-04-03T02:19:03.090Z,-0.11
2023-04-03T02:24:07.791Z,-0.18
2023-04-03T02:29:11.879Z,-0.25
2023-04-03T02:34:15.627Z,-0.33
2023-04-03T02:39:20.047Z,-0.38
2023-04-03T02:44:26.321Z,-0.45
2023-04-03T02:49:30.582Z,-0.47
2023-04-03T02:54:34.421Z,-0.48
2023-04-03T02:59:43.123Z,-0.50
2023-04-03T03:04:48.472Z,-0.54
2023-04-03T03:09:52.182Z,-0.57
2023-04-03T03:14:56.030Z,-0.65
2023-04-03T03:19:59.808Z,-0.72
2023-04-03T03:25:05.121Z,-0.76
2023-04-03T03:30:09.510Z,-0.81
2023-04-03T03:35:13.990Z,-0.83
2023-04-03T03:40:18.186Z,-0.88
2023-04-03T03:45:22.548Z,-0.92
2023-04-03T03:50:26.477Z,-0.96
2023-04-03T03:55:30.364Z,-0.98
2023-04-03T04:00:34.852Z,-1.01
2023-04-03T04:05:39.567Z,-1.04
2023-04-03T04:10:43.939Z,-1.05
2023-04-03T04:15:50.132Z,-1.06
2023-04-03T04:20:54.335Z,-1.10
2023-04-03T04:25:59.144Z,-1.13
2023-04-03T04:31:04.560Z,-1.17
2023-04-03T04:36:09.424Z,-1.19
2023-04-03T04:41:14.843Z,-1.21
2023-04-03T04:46:19.553Z,-1.22
2023-04-03T04:51:27.496Z,-1.18
2023-04-03T04:56:32.994Z,-1.12
2023-04-03T05:01:37.552Z,-0.94
2023-04-03T05:06:45.522Z,-0.98
2023-04-03T05:11:52.755Z,-1.05
2023-04-03T05:16:59.484Z,-1.02
2023-04-03T05:22:05.951Z,-0.95
2023-04-03T05:27:10.174Z,-0.86
2023-04-03T05:32:16.046Z,-0.75
2023-04-03T05:37:20.153Z,-0.66
2023-04-03T05:42:24.566Z,-0.57
2023-04-03T05:47:28.557Z,-0.50
2023-04-03T05:52:38.036Z,-0.41
2023-04-03T05:57:42.483Z,-0.29
2023-04-03T06:02:46.612Z,-0.23
2023-04-03T06:07:55.006Z,-0.15
2023-04-03T06:12:58.852Z,-0.09
2023-04-03T06:18:02.686Z,0.03
2023-04-03T06:23:08.611Z,0.09
2023-04-03T06:28:12.820Z,0.15
2023-04-03T06:33:16.747Z,0.26
2023-04-03T06:38:20.462Z,0.39
2023-04-03T06:43:24.693Z,0.59
2023-04-03T06:48:28.608Z,0.68
2023-04-03T06:53:32.463Z,0.79
2023-04-03T06:58:36.066Z,0.81
2023-04-03T07:03:40.479Z,0.90
2023-04-03T07:08:45.650Z,0.86
2023-04-03T07:13:49.791Z,1.02
2023-04-03T07:18:53.479Z,1.10
2023-04-03T07:23:57.218Z,1.18
2023-04-03T07:29:01.299Z,1.36
2023-04-03T07:34:05.281Z,1.43
2023-04-03T07:39:09.560Z,1.55
2023-04-03T07:44:13.232Z,1.70
2023-04-03T07:49:17.971Z,2.00
2023-04-03T07:54:21.808Z,1.95
2023-04-03T07:59:25.640Z,2.12
2023-04-03T08:04:29.481Z,2.35
2023-04-03T08:09:33.320Z,2.49
2023-04-03T08:14:37.055Z,2.44
2023-04-03T08:19:41.311Z,2.50
2023-04-03T08:24:56.221Z,2.82
2023-04-03T08:30:02.660Z,3.13
2023-04-03T08:35:06.632Z,3.14
2023-04-03T08:40:15.708Z,3.39
2023-04-03T08:45:22.801Z,3.59
2023-04-03T08:50:31.997Z,3.77
2023-04-03T08:55:45.479Z,3.94
2023-04-03T09:01:05.472Z,3.73
2023-04-03T09:06:18.901Z,3.74
2023-04-03T09:11:29.805Z,4.08
2023-04-03T09:16:59.760Z,3.97
2023-04-03T09:22:23.869Z,4.32
2023-04-03T09:27:28.355Z,4.42
2023-04-03T09:32:35.372Z,4.32
2023-04-03T09:37:42.981Z,4.13
2023-04-03T09:42:51.931Z,4.01
2023-04-03T09:48:16.192Z,3.71
2023-04-03T09:53:32.119Z,3.78
2023-04-03T09:58:49.529Z,3.73
2023-04-03T10:04:10.429Z,3.64
2023-04-03T10:09:34.550Z,3.69
2023-04-03T10:14:40.543Z,3.72
2023-04-03T10:19:53.752Z,3.68
2023-04-03T10:25:24.832Z,3.75
2023-04-03T10:30:58.914Z,4.13
2023-04-03T10:36:40.262Z,4.07
2023-04-03T10:42:17.240Z,4.49
2023-04-03T10:47:47.453Z,4.23
2023-04-03T10:52:59.360Z,4.06
2023-04-03T10:58:04.925Z,4.19
2023-04-03T11:03:32.564Z,4.17
2023-04-03T11:09:04.305Z,4.16
2023-04-03T11:14:21.666Z,4.65
2023-04-03T11:20:08.223Z,4.66
2023-04-03T11:25:11.984Z,4.48
2023-04-03T11:30:21.551Z,4.37
2023-04-03T11:35:26.408Z,4.60
2023-04-03T11:40:33.724Z,4.43
2023-04-03T11:46:00.478Z,4.26
2023-04-03T11:51:30.158Z,4.78
2023-04-03T11:56:34.324Z,5.08
2023-04-03T12:01:55.625Z,5.21
2023-04-03T12:07:14.988Z,4.93
2023-04-03T12:12:33.664Z,4.58
2023-04-03T12:17:38.243Z,4.48
2023-04-03T12:23:20.667Z,4.78
2023-04-03T12:28:25.875Z,5.28
2023-04-03T12:34:05.184Z,5.46
2023-04-03T12:39:26.708Z,5.28
2023-04-03T12:45:11.403Z,5.16
2023-04-03T12:50:34.338Z,5.56
2023-04-03T12:55:38.271Z,5.19
2023-04-03T13:00:42.637Z,5.09
2023-04-03T13:05:47.031Z,5.18
2023-04-03T13:11:01.719Z,5.45
2023-04-03T13:16:15.181Z,5.38
2023-04-03T13:21:23.105Z,5.24
2023-04-03T13:26:30.287Z,5.57
2023-04-03T13:31:39.521Z,5.33
2023-04-03T13:36:52.587Z,5.34
2023-04-03T13:41:58.883Z,5.48
2023-04-03T13:47:11.960Z,5.06
2023-04-03T13:52:32.304Z,4.86
2023-04-03T13:57:36.201Z,5.25
2023-04-03T14:02:40.864Z,5.56
2023-04-03T14:07:44.802Z,5.60
2023-04-03T14:13:18.192Z,5.27
2023-04-03T14:18:24.868Z,5.01
2023-04-03T14:23:30.359Z,5.18
2023-04-03T14:28:34.232Z,5.48
2023-04-03T14:33:39.167Z,5.69
2023-04-03T14:38:44.782Z,5.32
2023-04-03T14:43:49.252Z,5.17
2023-04-03T14:48:53.283Z,5.43
2023-04-03T14:53:57.430Z,5.42
2023-04-03T14:59:05.543Z,5.09
2023-04-03T15:04:20.167Z,4.99
2023-04-03T15:09:26.643Z,5.15
2023-04-03T15:14:36.855Z,5.23
2023-04-03T15:19:41.501Z,5.02
2023-04-03T15:24:45.733Z,4.93
2023-04-03T15:29:49.611Z,5.12
2023-04-03T15:34:55.954Z,4.99
2023-04-03T15:40:00.683Z,4.67
2023-04-03T15:45:05.136Z,4.48
2023-04-03T15:50:09.665Z,4.40
2023-04-03T15:55:14.966Z,4.33
2023-04-03T16:00:21.842Z,4.23
2023-04-03T16:05:26.035Z,4.16
2023-04-03T16:10:30.477Z,4.12
2023-04-03T16:15:36.099Z,4.07
2023-04-03T16:20:42.452Z,4.03
2023-04-03T16:25:48.295Z,3.97
2023-04-03T16:30:52.801Z,3.88
2023-04-03T16:35:57.501Z,3.79
2023-04-03T16:41:10.028Z,3.70
2023-04-03T16:46:14.189Z,3.63
2023-04-03T16:51:18.771Z,3.58
2023-04-03T16:56:23.684Z,3.53
2023-04-03T17:01:27.628Z,3.49
2023-04-03T17:06:34.686Z,3.44
2023-04-03T17:11:40.834Z,3.39
2023-04-03T17:16:48.929Z,3.33
2023-04-03T17:22:00.597Z,3.30
2023-04-03T17:27:11.021Z,3.26
2023-04-03T17:32:18.904Z,3.23
2023-04-03T17:37:23.805Z,3.21
2023-04-03T17:42:35.110Z,3.17
2023-04-03T17:47:47.304Z,3.11
2023-04-03T17:52:52.359Z,3.04
2023-04-03T17:57:59.773Z,3.02
2023-04-03T18:03:08.492Z,2.99
2023-04-03T18:08:15.040Z,2.97
2023-04-03T18:13:33.882Z,2.91
2023-04-03T18:18:41.775Z,2.89
2023-04-03T18:23:51.718Z,2.87
2023-04-03T18:28:59.614Z,2.82
2023-04-03T18:34:05.490Z,2.77
2023-04-03T18:39:11.260Z,2.74
2023-04-03T18:44:20.254Z,2.73
2023-04-03T18:49:25.147Z,2.72
2023-04-03T18:54:32.583Z,2.71
2023-04-03T18:59:40.865Z,2.67
2023-04-03T19:04:49.936Z,2.59
2023-04-03T19:09:57.792Z,2.53
2023-04-03T19:15:04.962Z,2.48
2023-04-03T19:20:14.282Z,2.45
2023-04-03T19:25:21.353Z,2.43
2023-04-03T19:30:26.894Z,2.43
2023-04-03T19:35:36.086Z,2.42
2023-04-03T19:40:44.886Z,2.39
2023-04-03T19:45:51.370Z,2.36
2023-04-03T19:50:58.768Z,2.36
2023-04-03T19:56:04.974Z,2.40
2023-04-03T20:01:11.084Z,2.43
2023-04-03T20:06:17.396Z,2.43
2023-04-03T20:11:24.014Z,2.40
2023-04-03T20:16:28.617Z,2.39
2023-04-03T20:21:34.498Z,2.34
2023-04-03T20:26:44.252Z,2.26
2023-04-03T20:31:49.755Z,2.16
2023-04-03T20:36:54.211Z,2.04
2023-04-03T20:41:58.099Z,1.94
2023-04-03T20:47:02.034Z,1.81
2023-04-03T20:52:05.981Z,1.66
2023-04-03T20:57:09.718Z,1.51
2023-04-03T21:02:13.709Z,1.32
2023-04-03T21:07:56.253Z,1.14
2023-04-03T21:13:37.754Z,0.95
2023-04-03T21:19:20.254Z,0.79
2023-04-03T21:24:24.148Z,0.58
2023-04-03T21:29:28.002Z,0.44
2023-04-03T21:34:32.245Z,0.37
2023-04-03T21:39:36.293Z,0.24
2023-04-03T21:44:41.930Z,0.15
2023-04-03T21:49:45.684Z,0.09
2023-04-03T21:54:49.613Z,0.00
2023-04-03T21:59:53.457Z,-0.11
2023-04-03T22:04:57.450Z,-0.22
2023-04-03T22:10:01.196Z,-0.29
2023-04-03T22:15:05.821Z,-0.38
2023-04-03T22:20:10.409Z,-0.47
2023-04-03T22:25:14.313Z,-0.55
2023-04-03T22:30:18.031Z,-0.63
2023-04-03T22:35:24.078Z,-0.73
2023-04-03T22:40:30.003Z,-0.78
2023-04-03T22:45:35.929Z,-0.81
2023-04-03T22:50:41.237Z,-0.80
2023-04-03T22:55:46.029Z,-0.83
2023-04-03T23:00:49.887Z,-0.84
2023-04-03T23:05:53.817Z,-0.86
2023-04-03T23:11:01.985Z,-0.84
2023-04-03T23:16:07.135Z,-0.82
2023-04-03T23:21:10.850Z,-0.79
2023-04-03T23:26:14.737Z,-0.78
2023-04-03T23:31:18.610Z,-0.79
2023-04-03T23:36:22.510Z,-0.82
2023-04-03T23:41:26.301Z,-0.83
2023-04-03T23:46:30.056Z,-0.85
2023-04-03T23:51:34.211Z,-0.89
2023-04-03T23:56:38.282Z,-0.90
